createdAt,value
2022-10-01T00:02:11.358Z,14.07
2022-10-01T00:04:39.749Z,16.98
2022-10-01T00:07:10.890Z,15.00
2022-10-01T00:09:38.869Z,17.85
2022-10-01T00:12:06.579Z,17.20
2022-10-01T00:14:33.993Z,16.00
2022-10-01T00:17:01.486Z,16.38
2022-10-01T00:19:29.231Z,16.65
2022-10-01T00:21:56.655Z,14.30
2022-10-01T00:24:26.355Z,14.88
2022-10-01T00:26:54.128Z,14.02
2022-10-01T00:29:21.558Z,13.77
2022-10-01T00:31:49.363Z,13.60
2022-10-01T00:34:19.473Z,13.98
2022-10-01T00:36:47.219Z,13.13
2022-10-01T00:39:14.898Z,12.25
2022-10-01T00:41:42.825Z,11.90
2022-10-01T00:44:28.975Z,14.10
2022-10-01T00:46:59.305Z,14.18
2022-10-01T00:49:29.533Z,10.52
2022-10-01T00:51:59.012Z,14.63
2022-10-01T00:54:38.580Z,11.98
2022-10-01T00:59:34.953Z,8.95
2022-10-01T01:02:02.385Z,10.32
2022-10-01T01:04:30.020Z,9.43
2022-10-01T01:06:58.686Z,9.65
2022-10-01T01:09:30.124Z,9.97
2022-10-01T01:12:18.729Z,9.27
2022-10-01T01:14:46.082Z,9.13
2022-10-01T01:17:17.239Z,11.32
2022-10-01T01:20:07.670Z,8.02
2022-10-01T01:22:37.414Z,10.13
2022-10-01T01:25:13.713Z,8.82
2022-10-01T01:28:02.096Z,8.80
2022-10-01T01:30:32.723Z,10.13
2022-10-01T01:33:04.886Z,9.82
2022-10-01T01:35:32.521Z,11.20
2022-10-01T01:38:03.511Z,10.98
2022-10-01T01:40:34.007Z,10.10
2022-10-01T01:43:05.985Z,12.82
2022-10-01T01:45:44.329Z,11.18
2022-10-01T01:48:14.840Z,10.95
2022-10-01T01:50:54.260Z,10.05
2022-10-01T01:53:21.826Z,9.95
2022-10-01T01:55:49.612Z,10.65
2022-10-01T01:58:19.017Z,9.93
2022-10-01T02:00:52.451Z,11.73
2022-10-01T02:03:22.228Z,8.02
2022-10-01T02:05:58.147Z,9.57
2022-10-01T02:08:34.198Z,8.40
2022-10-01T02:11:23.966Z,7.75
2022-10-01T02:14:14.745Z,7.13
2022-10-01T02:16:42.344Z,6.90
2022-10-01T02:19:18.519Z,8.35
2022-10-01T02:22:07.442Z,7.00
2022-10-01T02:24:41.268Z,6.40
2022-10-01T02:27:19.074Z,6.00
2022-10-01T02:29:46.677Z,7.00
2022-10-01T02:32:17.769Z,6.22
2022-10-01T02:34:49.843Z,7.90
2022-10-01T02:37:18.527Z,9.75
2022-10-01T02:39:46.710Z,6.83
2022-10-01T02:42:15.571Z,7.88
2022-10-01T02:44:45.183Z,8.00
2022-10-01T02:47:21.690Z,8.43
2022-10-01T02:49:50.268Z,9.48
2022-10-01T02:52:22.639Z,8.23
2022-10-01T02:54:52.588Z,6.50
2022-10-01T02:57:29.833Z,9.40
2022-10-01T02:59:59.859Z,9.10
2022-10-01T03:02:28.290Z,7.97
2022-10-01T03:04:59.023Z,10.10
2022-10-01T03:07:29.467Z,9.40
2022-10-01T03:09:57.303Z,10.57
2022-10-01T03:12:25.087Z,10.40
2022-10-01T03:14:53.784Z,13.02
2022-10-01T03:17:21.334Z,12.52
2022-10-01T03:19:51.468Z,11.00
2022-10-01T03:22:25.089Z,11.63
2022-10-01T03:24:53.043Z,12.05
2022-10-01T03:27:21.319Z,14.45
2022-10-01T03:29:51.666Z,10.77
2022-10-01T03:32:19.371Z,15.38
2022-10-01T03:34:47.127Z,11.95
2022-10-01T03:37:16.448Z,13.13
2022-10-01T03:39:43.844Z,15.10
2022-10-01T03:42:11.338Z,13.93
2022-10-01T03:44:38.846Z,15.65
2022-10-01T03:47:06.297Z,15.65
2022-10-01T03:49:34.738Z,14.95
2022-10-01T03:52:02.738Z,15.90
2022-10-01T03:54:31.400Z,14.45
2022-10-01T03:57:01.581Z,15.02
2022-10-01T03:59:29.616Z,15.98
2022-10-01T04:01:57.039Z,16.35
2022-10-01T04:04:24.485Z,18.83
2022-10-01T04:06:52.074Z,18.67
2022-10-01T04:09:19.428Z,16.73
2022-10-01T04:11:49.951Z,17.95
2022-10-01T04:14:21.687Z,18.25
2022-10-01T04:16:52.566Z,19.70
2022-10-01T04:19:20.514Z,17.02
2022-10-01T04:21:50.551Z,18.27
2022-10-01T04:24:17.902Z,18.17
2022-10-01T04:26:45.243Z,18.27
2022-10-01T04:29:12.639Z,17.15
2022-10-01T04:31:43.102Z,16.55
2022-10-01T04:34:10.634Z,18.75
2022-10-01T04:36:38.090Z,16.52
2022-10-01T04:39:05.955Z,17.73
2022-10-01T04:41:36.713Z,17.48
2022-10-01T04:44:04.599Z,19.23
2022-10-01T04:46:34.309Z,18.85
2022-10-01T04:49:01.871Z,15.63
2022-10-01T04:51:29.377Z,14.85
2022-10-01T04:53:56.785Z,14.98
2022-10-01T04:56:24.139Z,15.77
2022-10-01T04:58:51.806Z,16.85
2022-10-01T05:01:19.326Z,12.95
2022-10-01T05:03:47.462Z,13.18
2022-10-01T05:06:14.857Z,15.32
2022-10-01T05:08:42.145Z,13.40
2022-10-01T05:11:09.633Z,14.00
2022-10-01T05:13:36.984Z,14.50
2022-10-01T05:16:04.401Z,17.30
2022-10-01T05:18:32.483Z,15.60
2022-10-01T05:21:10.139Z,16.38
2022-10-01T05:23:37.460Z,17.42
2022-10-01T05:26:05.861Z,14.38
2022-10-01T05:28:35.751Z,14.35
2022-10-01T05:31:04.102Z,15.40
2022-10-01T05:33:34.516Z,17.52
2022-10-01T05:36:02.036Z,12.75
2022-10-01T05:38:29.783Z,13.18
2022-10-01T05:40:57.157Z,15.98
2022-10-01T05:43:27.084Z,13.88
2022-10-01T05:45:54.796Z,14.80
2022-10-01T05:48:24.846Z,12.50
2022-10-01T05:50:54.182Z,13.43
2022-10-01T05:53:23.718Z,12.55
2022-10-01T05:58:18.548Z,18.10
2022-10-01T06:00:45.912Z,13.43
2022-10-01T06:03:16.277Z,10.73
2022-10-01T06:05:44.903Z,10.80
2022-10-01T06:08:12.608Z,13.37
2022-10-01T06:10:40.366Z,15.65
2022-10-01T06:13:13.477Z,12.70
2022-10-01T06:15:40.857Z,11.95
2022-10-01T06:18:09.463Z,13.02
2022-10-01T06:20:39.775Z,15.27
2022-10-01T06:23:11.360Z,12.82
2022-10-01T06:25:42.830Z,11.43
2022-10-01T06:28:12.011Z,14.02
2022-10-01T06:30:40.750Z,13.23
2022-10-01T06:33:09.980Z,14.67
2022-10-01T06:35:40.666Z,15.50
2022-10-01T06:38:09.567Z,15.95
2022-10-01T06:40:37.244Z,18.33
2022-10-01T06:43:07.594Z,17.77
2022-10-01T06:45:38.212Z,11.60
2022-10-01T06:48:05.856Z,17.55
2022-10-01T06:50:34.349Z,17.15
2022-10-01T06:53:02.158Z,18.25
2022-10-01T06:55:31.139Z,17.33
2022-10-01T06:58:06.006Z,18.48
2022-10-01T07:00:35.009Z,19.10
2022-10-01T07:03:03.252Z,17.17
2022-10-01T07:05:30.667Z,16.33
2022-10-01T07:07:57.982Z,15.80
2022-10-01T07:10:25.546Z,12.68
2022-10-01T07:12:52.965Z,15.65
2022-10-01T07:15:22.714Z,13.60
2022-10-01T07:17:51.051Z,18.02
2022-10-01T07:20:19.343Z,18.55
2022-10-01T07:22:47.494Z,17.70
2022-10-01T07:25:14.987Z,12.70
2022-10-01T07:27:42.854Z,20.60
2022-10-01T07:30:12.875Z,18.15
2022-10-01T07:32:42.743Z,14.73
2022-10-01T07:35:10.587Z,20.63
2022-10-01T07:37:38.020Z,15.32
2022-10-01T07:40:07.658Z,17.35
2022-10-01T07:42:35.726Z,16.85
2022-10-01T07:45:06.697Z,16.58
2022-10-01T07:47:34.204Z,23.52
2022-10-01T07:50:01.727Z,19.23
2022-10-01T07:52:29.063Z,16.13
2022-10-01T07:54:56.397Z,20.08
2022-10-01T07:57:23.740Z,23.42
2022-10-01T07:59:55.689Z,18.25
2022-10-01T08:02:23.688Z,23.52
2022-10-01T08:05:09.438Z,19.70
2022-10-01T08:07:36.980Z,17.30
2022-10-01T08:10:04.690Z,22.85
2022-10-01T08:12:32.368Z,20.63
2022-10-01T08:14:59.819Z,23.58
2022-10-01T08:17:29.497Z,27.70
2022-10-01T08:19:57.203Z,24.67
2022-10-01T08:22:24.587Z,17.10
2022-10-01T08:24:52.202Z,23.83
2022-10-01T08:27:19.596Z,24.70
2022-10-01T08:29:48.434Z,30.58
2022-10-01T08:32:18.806Z,25.88
2022-10-01T08:34:46.872Z,20.45
2022-10-01T08:37:16.973Z,26.13
2022-10-01T08:39:44.537Z,27.27
2022-10-01T08:42:15.719Z,26.23
2022-10-01T08:44:44.904Z,22.20
2022-10-01T08:47:18.973Z,23.35
2022-10-01T08:49:49.606Z,25.05
2022-10-01T08:52:24.371Z,22.05
2022-10-01T08:55:12.307Z,23.60
2022-10-01T08:57:49.866Z,25.58
2022-10-01T09:00:18.212Z,23.35
2022-10-01T09:02:47.110Z,21.40
2022-10-01T09:05:21.074Z,26.55
2022-10-01T09:07:57.771Z,22.45
2022-10-01T09:10:28.508Z,18.58
2022-10-01T09:13:04.510Z,23.20
2022-10-01T09:16:04.100Z,28.17
2022-10-01T09:18:37.764Z,21.02
2022-10-01T09:21:11.566Z,23.33
2022-10-01T09:23:45.504Z,27.38
2022-10-01T09:26:13.485Z,21.60
2022-10-01T09:28:41.985Z,19.88
2022-10-01T09:31:33.505Z,22.13
2022-10-01T09:34:11.998Z,20.40
2022-10-01T09:36:48.484Z,23.42
2022-10-01T09:39:22.104Z,16.85
2022-10-01T09:41:49.636Z,16.77
2022-10-01T09:44:19.001Z,19.58
2022-10-01T09:46:47.538Z,15.05
2022-10-01T09:49:24.220Z,10.45
2022-10-01T09:51:55.405Z,14.15
2022-10-01T09:54:22.756Z,15.30
2022-10-01T09:56:55.107Z,10.23
2022-10-01T09:59:24.978Z,12.18
2022-10-01T10:01:59.287Z,14.57
2022-10-01T10:04:27.152Z,12.60
2022-10-01T10:07:02.381Z,14.07
2022-10-01T10:09:33.993Z,12.55
2022-10-01T10:12:02.109Z,13.75
2022-10-01T10:14:42.689Z,13.50
2022-10-01T10:17:15.323Z,15.32
2022-10-01T10:19:49.417Z,13.85
2022-10-01T10:22:25.098Z,13.35
2022-10-01T10:24:59.033Z,11.52
2022-10-01T10:27:28.160Z,9.15
2022-10-01T10:30:02.970Z,12.40
2022-10-01T10:32:30.749Z,7.47
2022-10-01T10:35:03.304Z,13.18
2022-10-01T10:37:32.837Z,14.55
2022-10-01T10:40:00.274Z,10.45
2022-10-01T10:42:30.285Z,13.15
2022-10-01T10:45:01.556Z,9.27
2022-10-01T10:47:31.558Z,9.32
2022-10-01T10:50:00.379Z,12.10
2022-10-01T10:52:33.869Z,11.18
2022-10-01T10:55:02.602Z,9.75
2022-10-01T10:57:31.051Z,12.10
2022-10-01T10:59:58.508Z,11.17
2022-10-01T11:02:27.066Z,10.95
2022-10-01T11:04:56.535Z,7.47
2022-10-01T11:07:27.537Z,10.55
2022-10-01T11:10:13.840Z,14.13
2022-10-01T11:12:57.553Z,9.77
2022-10-01T11:15:44.373Z,10.35
2022-10-01T11:18:14.827Z,8.63
2022-10-01T11:20:50.746Z,9.70
2022-10-01T11:23:30.092Z,9.48
2022-10-01T11:26:03.726Z,13.55
2022-10-01T11:28:37.620Z,14.68
2022-10-01T11:31:22.642Z,10.50
2022-10-01T11:34:13.303Z,9.85
2022-10-01T11:36:57.271Z,12.00
2022-10-01T11:39:25.771Z,11.40
2022-10-01T11:41:57.370Z,10.38
2022-10-01T11:44:33.500Z,10.30
2022-10-01T11:47:04.750Z,15.10
2022-10-01T11:49:42.699Z,15.75
2022-10-01T11:52:17.627Z,10.68
2022-10-01T11:55:30.451Z,9.00
2022-10-01T11:58:37.255Z,9.52
2022-10-01T12:01:10.802Z,11.43
2022-10-01T12:03:45.144Z,13.73
2022-10-01T12:06:14.939Z,14.27
2022-10-01T12:08:48.235Z,10.00
2022-10-01T12:11:19.048Z,12.07
2022-10-01T12:13:55.349Z,10.73
2022-10-01T12:16:31.867Z,10.65
2022-10-01T12:19:03.481Z,11.82
2022-10-01T12:21:35.694Z,8.38
2022-10-01T12:24:06.068Z,9.20
2022-10-01T12:26:39.648Z,10.18
2022-10-01T12:29:14.471Z,10.55
2022-10-01T12:31:42.074Z,10.70
2022-10-01T12:34:17.938Z,11.63
2022-10-01T12:36:49.340Z,12.20
2022-10-01T12:39:25.145Z,10.35
2022-10-01T12:42:11.351Z,13.73
2022-10-01T12:44:52.444Z,10.65
2022-10-01T12:47:38.961Z,9.52
2022-10-01T12:50:12.856Z,9.73
2022-10-01T12:52:46.570Z,10.93
2022-10-01T12:55:17.863Z,14.57
2022-10-01T12:57:53.300Z,16.02
2022-10-01T13:00:22.285Z,11.27
2022-10-01T13:02:56.108Z,10.43
2022-10-01T13:05:35.604Z,7.97
2022-10-01T13:08:02.976Z,9.57
2022-10-01T13:10:36.407Z,10.93
2022-10-01T13:13:42.972Z,10.25
2022-10-01T13:16:16.851Z,10.88
2022-10-01T13:18:50.854Z,10.40
2022-10-01T13:21:33.518Z,15.25
2022-10-01T13:24:17.122Z,8.93
2022-10-01T13:27:03.867Z,10.80
2022-10-01T13:29:58.664Z,10.32
2022-10-01T13:32:26.020Z,11.95
2022-10-01T13:34:56.745Z,10.13
2022-10-01T13:37:41.064Z,10.50
2022-10-01T13:40:29.043Z,9.63
2022-10-01T13:43:19.359Z,9.48
2022-10-01T13:45:51.452Z,18.25
2022-10-01T13:48:20.080Z,6.68
2022-10-01T13:51:05.168Z,11.23
2022-10-01T13:53:34.808Z,15.82
2022-10-01T13:56:06.938Z,9.10
2022-10-01T13:58:39.053Z,10.10
2022-10-01T14:01:29.571Z,13.32
2022-10-01T14:04:00.104Z,11.18
2022-10-01T14:06:37.107Z,14.55
2022-10-01T14:09:16.717Z,7.82
2022-10-01T14:12:04.665Z,11.73
2022-10-01T14:14:55.285Z,11.68
2022-10-01T14:17:25.171Z,9.57
2022-10-01T14:19:53.081Z,10.07
2022-10-01T14:22:41.838Z,14.60
2022-10-01T14:25:37.737Z,7.93
2022-10-01T14:28:20.415Z,18.42
2022-10-01T14:30:50.947Z,8.63
2022-10-01T14:33:51.260Z,13.05
2022-10-01T14:36:19.043Z,9.68
2022-10-01T14:38:46.618Z,16.63
2022-10-01T14:41:19.086Z,8.32
2022-10-01T14:43:47.036Z,11.20
2022-10-01T14:46:16.797Z,7.53
2022-10-01T14:48:46.824Z,8.80
2022-10-01T14:51:31.247Z,8.38
2022-10-01T14:54:01.691Z,9.52
2022-10-01T14:56:32.819Z,10.07
2022-10-01T14:59:03.355Z,8.40
2022-10-01T15:01:31.326Z,7.95
2022-10-01T15:04:03.975Z,18.67
2022-10-01T15:06:32.790Z,8.07
2022-10-01T15:09:11.223Z,6.55
2022-10-01T15:11:44.635Z,13.35
2022-10-01T15:14:16.397Z,8.15
2022-10-01T15:16:46.874Z,6.55
2022-10-01T15:19:19.956Z,8.55
2022-10-01T15:21:56.688Z,11.07
2022-10-01T15:24:34.037Z,9.48
2022-10-01T15:27:01.919Z,12.93
2022-10-01T15:29:29.510Z,11.40
2022-10-01T15:32:02.749Z,13.90
2022-10-01T15:34:30.622Z,10.65
2022-10-01T15:37:01.656Z,8.23
2022-10-01T15:39:36.652Z,5.38
2022-10-01T15:42:09.852Z,11.95
2022-10-01T15:44:40.379Z,7.57
2022-10-01T15:47:27.237Z,8.10
2022-10-01T15:50:10.954Z,10.73
2022-10-01T15:52:54.395Z,9.55
2022-10-01T15:55:28.216Z,10.77
2022-10-01T15:58:04.519Z,10.43
2022-10-01T16:00:40.641Z,14.93
2022-10-01T16:03:18.183Z,20.02
2022-10-01T16:05:47.022Z,14.32
2022-10-01T16:08:21.900Z,8.95
2022-10-01T16:11:08.276Z,13.38
2022-10-01T16:13:39.420Z,9.52
2022-10-01T16:16:27.664Z,7.68
2022-10-01T16:19:16.894Z,19.40
2022-10-01T16:22:11.058Z,16.58
2022-10-01T16:24:48.311Z,11.93
2022-10-01T16:27:20.756Z,14.68
2022-10-01T16:29:53.539Z,11.38
2022-10-01T16:32:20.998Z,11.25
2022-10-01T16:34:48.388Z,9.50
2022-10-01T16:37:16.241Z,12.95
2022-10-01T16:39:49.516Z,14.18
2022-10-01T16:42:24.806Z,13.65
2022-10-01T16:44:55.463Z,10.82
2022-10-01T16:47:26.337Z,12.27
2022-10-01T16:49:53.807Z,12.40
2022-10-01T16:52:41.476Z,12.05
2022-10-01T16:55:20.529Z,11.07
2022-10-01T16:57:48.171Z,14.27
2022-10-01T17:00:16.662Z,15.98
2022-10-01T17:02:44.216Z,9.25
2022-10-01T17:05:19.843Z,9.70
2022-10-01T17:07:47.488Z,15.63
2022-10-01T17:10:15.507Z,10.88
2022-10-01T17:12:43.685Z,13.77
2022-10-01T17:15:15.852Z,14.32
2022-10-01T17:17:43.741Z,14.13
2022-10-01T17:20:11.668Z,11.57
2022-10-01T17:22:39.578Z,11.77
2022-10-01T17:25:07.968Z,13.43
2022-10-01T17:27:35.672Z,11.32
2022-10-01T17:30:03.644Z,14.07
2022-10-01T17:32:34.079Z,14.60
2022-10-01T17:35:01.978Z,14.35
2022-10-01T17:37:32.128Z,12.43
2022-10-01T17:39:59.931Z,10.05
2022-10-01T17:42:27.466Z,10.55
2022-10-01T17:44:57.617Z,13.68
2022-10-01T17:47:26.371Z,12.07
2022-10-01T17:49:53.913Z,12.68
2022-10-01T17:52:21.506Z,14.27
2022-10-01T17:54:57.901Z,14.30
2022-10-01T17:57:30.512Z,13.18
2022-10-01T18:00:00.272Z,9.13
2022-10-01T18:02:41.678Z,11.93
2022-10-01T18:05:17.171Z,16.58
2022-10-01T18:07:49.041Z,12.48
2022-10-01T18:10:16.645Z,13.40
2022-10-01T18:15:25.513Z,14.23
2022-10-01T18:18:38.136Z,14.90
2022-10-01T18:20:47.172Z,12.73
2022-10-01T18:23:23.976Z,15.20
2022-10-01T18:25:51.463Z,11.10
2022-10-01T18:28:19.233Z,14.68
2022-10-01T18:30:50.327Z,15.35
2022-10-01T18:33:17.936Z,13.25
2022-10-01T18:35:45.564Z,14.27
2022-10-01T18:38:24.515Z,12.38
2022-10-01T18:40:58.150Z,14.45
2022-10-01T18:43:33.591Z,16.08
2022-10-01T18:46:16.477Z,9.95
2022-10-01T18:49:13.225Z,13.52
2022-10-01T18:51:55.825Z,14.18
2022-10-01T18:54:29.313Z,14.00
2022-10-01T18:57:23.373Z,15.68
2022-10-01T18:59:50.778Z,14.13
2022-10-01T19:02:22.806Z,13.43
2022-10-01T19:05:08.587Z,11.68
2022-10-01T19:07:43.567Z,16.00
2022-10-01T19:10:32.051Z,15.73
2022-10-01T19:13:26.065Z,12.70
2022-10-01T19:16:12.550Z,14.10
2022-10-01T19:19:02.978Z,15.50
2022-10-01T19:21:45.227Z,18.15
2022-10-01T19:24:18.109Z,14.90
2022-10-01T19:26:48.273Z,11.23
2022-10-01T19:29:24.056Z,14.27
2022-10-01T19:31:55.519Z,14.02
2022-10-01T19:34:39.897Z,16.05
2022-10-01T19:37:11.623Z,10.25
2022-10-01T19:39:39.975Z,12.15
2022-10-01T19:42:27.026Z,15.73
2022-10-01T19:45:17.759Z,15.57
2022-10-01T19:47:51.222Z,14.48
2022-10-01T19:50:43.680Z,13.90
2022-10-01T19:53:31.520Z,25.23
2022-10-01T19:56:03.903Z,21.85
2022-10-01T19:58:32.825Z,12.18
2022-10-01T20:01:01.420Z,15.98
2022-10-01T20:03:34.833Z,13.07
2022-10-01T20:06:37.967Z,15.38
2022-10-01T20:09:27.048Z,14.75
2022-10-01T20:12:06.291Z,16.50
2022-10-01T20:15:04.463Z,16.70
2022-10-01T20:17:34.881Z,16.52
2022-10-01T20:20:06.037Z,12.77
2022-10-01T20:22:36.339Z,13.75
2022-10-01T20:25:08.801Z,17.00
2022-10-01T20:27:38.942Z,12.45
2022-10-01T20:30:12.012Z,13.32
2022-10-01T20:32:53.707Z,18.63
2022-10-01T20:35:36.738Z,12.27
2022-10-01T20:38:08.057Z,14.60
2022-10-01T20:40:40.158Z,12.73
2022-10-01T20:43:18.696Z,19.02
2022-10-01T20:45:48.225Z,13.90
2022-10-01T20:48:20.956Z,14.80
2022-10-01T20:50:50.994Z,16.73
2022-10-01T20:53:38.911Z,16.95
2022-10-01T20:56:13.082Z,18.52
2022-10-01T20:58:44.622Z,21.85
2022-10-01T21:01:17.908Z,15.10
2022-10-01T21:03:47.293Z,16.58
2022-10-01T21:06:17.612Z,14.88
2022-10-01T21:08:47.840Z,14.23
2022-10-01T21:11:20.324Z,17.20
2022-10-01T21:13:59.913Z,18.10
2022-10-01T21:19:27.271Z,9.93
2022-10-01T21:22:06.476Z,19.77
2022-10-01T21:24:52.536Z,16.08
2022-10-01T21:27:58.811Z,19.60
2022-10-01T21:30:28.836Z,10.82
2022-10-01T21:33:02.614Z,15.30
2022-10-01T21:35:49.361Z,15.75
2022-10-01T21:38:35.681Z,15.82
2022-10-01T21:41:21.286Z,18.13
2022-10-01T21:43:56.654Z,18.55
2022-10-01T21:46:27.440Z,15.65
2022-10-01T21:48:57.055Z,20.10
2022-10-01T21:53:52.663Z,17.90
2022-10-01T21:56:37.330Z,18.40
2022-10-01T21:59:07.215Z,18.23
2022-10-01T22:04:05.240Z,18.15
2022-10-01T22:06:36.855Z,17.23
2022-10-01T22:09:16.258Z,15.77
2022-10-01T22:11:52.920Z,19.92
2022-10-01T22:14:20.959Z,16.23
2022-10-01T22:16:59.410Z,19.10
2022-10-01T22:19:29.230Z,16.88
2022-10-01T22:22:05.518Z,13.63
2022-10-01T22:24:37.154Z,14.85
2022-10-01T22:27:14.501Z,15.23
2022-10-01T22:29:43.271Z,12.45
2022-10-01T22:32:12.880Z,15.77
2022-10-01T22:37:27.687Z,11.77
2022-10-01T22:40:08.690Z,15.05
2022-10-01T22:42:39.090Z,16.70
2022-10-01T22:45:20.438Z,17.48
2022-10-01T22:48:06.749Z,22.40
2022-10-01T22:50:40.031Z,13.80
2022-10-01T22:53:07.924Z,16.25
2022-10-01T22:55:35.235Z,12.68
2022-10-01T22:58:22.216Z,12.30
2022-10-01T23:01:00.622Z,13.65
2022-10-01T23:03:46.911Z,11.30
2022-10-01T23:06:27.050Z,6.82
2022-10-01T23:09:00.023Z,9.32
2022-10-01T23:11:32.057Z,12.23
2022-10-01T23:13:59.416Z,12.18
2022-10-01T23:16:33.190Z,7.47
2022-10-01T23:19:21.820Z,11.07
2022-10-01T23:22:12.342Z,10.93
2022-10-01T23:25:04.120Z,9.38
2022-10-01T23:27:46.251Z,7.55
2022-10-01T23:30:18.056Z,7.32
2022-10-01T23:32:59.318Z,5.53
2022-10-01T23:35:47.587Z,7.43
2022-10-01T23:38:15.117Z,5.00
2022-10-01T23:40:44.989Z,9.82
2022-10-01T23:43:27.821Z,8.43
2022-10-01T23:46:02.395Z,6.57
2022-10-01T23:48:35.736Z,8.98
2022-10-01T23:51:09.303Z,8.70
2022-10-01T23:53:41.396Z,7.35
2022-10-01T23:56:30.227Z,9.45
2022-10-01T23:59:21.407Z,5.03
